Time;durP1;ratioP1;P1;durP2;ratioP2;P2;SDS_P1;SDS_P2;PMS_P1;PMS_P2;Temp;Humidity;BMP_temperature;BMP_pressure;BME280_temperature;BME280_humidity;BME280_pressure;Samples;Min_cycle;Max_cycle;Signal;HPM_P1;HPM_P2
2024/02/20 00:01:42;;;;;;;12.53;4.53;;;8.00;99.90;;;;;;5108588;28;20722;-71
2024/02/20 00:04:10;;;;;;;14.50;4.40;;;8.00;99.90;;;;;;5108028;28;20461;-71
2024/02/20 00:06:38;;;;;;;10.87;4.03;;;8.00;99.90;;;;;;5106658;28;20443;-71
2024/02/20 00:09:09;;;;;;;11.07;4.33;;;8.00;99.90;;;;;;5108592;28;20459;-70
2024/02/20 00:11:37;;;;;;;11.30;3.97;;;8.00;99.90;;;;;;5105891;28;20807;-70
2024/02/20 00:14:05;;;;;;;11.33;4.57;;;8.00;99.90;;;;;;5102403;28;20868;-70
2024/02/20 00:16:33;;;;;;;11.30;4.03;;;8.10;99.90;;;;;;5107791;28;20442;-70
2024/02/20 00:19:01;;;;;;;10.70;3.83;;;8.10;99.90;;;;;;5106982;28;20441;-70
2024/02/20 00:21:29;;;;;;;11.70;4.50;;;8.10;99.90;;;;;;5101652;28;20465;-70
2024/02/20 00:23:57;;;;;;;11.90;3.77;;;8.10;99.90;;;;;;5096108;28;20457;-70
2024/02/20 00:26:26;;;;;;;14.97;4.10;;;8.10;99.90;;;;;;5106483;28;20492;-71
2024/02/20 00:28:55;;;;;;;10.80;4.40;;;8.10;99.90;;;;;;5106760;28;20442;-71
2024/02/20 00:31:23;;;;;;;12.10;3.80;;;8.20;99.90;;;;;;5102752;28;20561;-70
2024/02/20 00:33:51;;;;;;;10.70;4.30;;;8.20;99.90;;;;;;5102672;28;20468;-72
2024/02/20 00:36:19;;;;;;;11.07;4.30;;;8.20;99.90;;;;;;5100023;28;20736;-71
2024/02/20 00:38:47;;;;;;;12.40;4.70;;;8.20;99.90;;;;;;5103043;28;20446;-71
2024/02/20 00:41:14;;;;;;;11.47;4.10;;;8.20;99.90;;;;;;5107019;28;20537;-71
2024/02/20 00:43:44;;;;;;;18.30;5.43;;;8.20;99.90;;;;;;5105733;28;20442;-71
2024/02/20 00:46:19;;;;;;;12.50;5.30;;;8.30;99.90;;;;;;5106812;28;20717;-70
2024/02/20 00:48:48;;;;;;;12.87;5.80;;;8.30;99.90;;;;;;5104266;28;20576;-71
2024/02/20 00:51:18;;;;;;;12.10;4.63;;;8.30;99.90;;;;;;5102428;28;20469;-70
2024/02/20 00:53:47;;;;;;;10.33;4.20;;;8.30;99.90;;;;;;5106240;28;20441;-70
2024/02/20 00:56:15;;;;;;;11.63;3.77;;;8.40;99.90;;;;;;5105713;28;20465;-71
2024/02/20 00:58:45;;;;;;;13.30;4.80;;;8.40;99.90;;;;;;5104076;28;20475;-72
2024/02/20 01:01:13;;;;;;;10.77;4.30;;;8.30;99.90;;;;;;5101452;28;20895;-71
2024/02/20 01:03:42;;;;;;;12.43;4.60;;;8.30;99.90;;;;;;5102205;28;20500;-70
2024/02/20 01:06:11;;;;;;;13.77;4.90;;;8.30;99.90;;;;;;5103174;28;20530;-72
2024/02/20 01:08:41;;;;;;;11.90;4.50;;;8.30;99.90;;;;;;5105488;28;20454;-70
2024/02/20 01:11:09;;;;;;;10.73;4.30;;;8.40;99.90;;;;;;5101571;28;20976;-70
2024/02/20 01:13:38;;;;;;;10.57;4.20;;;8.40;99.90;;;;;;5098736;28;20488;-71
2024/02/20 01:16:08;;;;;;;10.93;5.23;;;8.40;99.90;;;;;;5094598;28;20513;-71
2024/02/20 01:18:38;;;;;;;11.37;3.60;;;8.40;99.90;;;;;;5105357;28;20607;-71
2024/02/20 01:21:06;;;;;;;11.53;3.50;;;8.30;99.90;;;;;;5105897;28;20480;-70
2024/02/20 01:23:35;;;;;;;11.23;3.33;;;8.30;99.90;;;;;;5104642;28;20522;-71
2024/02/20 01:26:03;;;;;;;9.53;2.70;;;8.30;99.90;;;;;;5104500;28;20996;-70
2024/02/20 01:28:31;;;;;;;10.73;3.70;;;8.30;99.90;;;;;;5105971;28;20445;-71
2024/02/20 01:30:59;;;;;;;10.47;3.47;;;8.20;99.90;;;;;;5103599;28;20491;-70
2024/02/20 01:33:29;;;;;;;10.67;3.93;;;8.20;99.90;;;;;;5104371;28;20605;-70
2024/02/20 01:35:57;;;;;;;10.50;3.77;;;8.20;99.90;;;;;;5097935;28;20980;-70
2024/02/20 01:38:25;;;;;;;11.60;4.23;;;8.20;99.90;;;;;;5104121;28;20982;-71
2024/02/20 01:40:52;;;;;;;13.93;3.30;;;8.20;99.90;;;;;;5100113;28;20452;-71
2024/02/20 01:43:20;;;;;;;11.03;3.37;;;8.20;99.90;;;;;;5099589;28;20474;-71
2024/02/20 01:45:48;;;;;;;11.37;4.00;;;8.20;99.90;;;;;;5102349;28;20510;-70
2024/02/20 01:48:16;;;;;;;10.93;3.63;;;8.10;99.90;;;;;;5102541;28;20463;-70
2024/02/20 01:50:46;;;;;;;11.27;3.57;;;7.90;99.90;;;;;;5098049;28;20487;-71
2024/02/20 01:53:15;;;;;;;10.07;4.20;;;7.80;99.90;;;;;;5101119;28;20473;-70
2024/02/20 01:55:43;;;;;;;14.70;4.13;;;7.80;99.90;;;;;;5104586;28;20485;-71
2024/02/20 01:58:11;;;;;;;10.90;4.17;;;7.70;99.90;;;;;;5096698;28;20498;-71
2024/02/20 02:00:39;;;;;;;10.80;4.10;;;7.70;99.90;;;;;;5104970;28;20461;-71
2024/02/20 02:03:07;;;;;;;14.37;4.43;;;7.60;99.90;;;;;;5104947;28;20486;-71
2024/02/20 02:05:35;;;;;;;12.50;3.97;;;7.60;99.90;;;;;;5105510;28;20551;-70
2024/02/20 02:08:07;;;;;;;13.57;4.70;;;7.60;99.90;;;;;;5105029;28;20461;-70
2024/02/20 02:10:35;;;;;;;16.07;5.20;;;7.60;99.90;;;;;;5103468;28;20463;-71
2024/02/20 02:13:03;;;;;;;14.57;5.90;;;7.70;99.90;;;;;;5105265;28;20455;-71
2024/02/20 02:15:31;;;;;;;15.63;6.80;;;7.70;99.90;;;;;;5098374;28;20484;-71
2024/02/20 02:17:59;;;;;;;12.40;4.57;;;7.70;99.90;;;;;;5104550;28;20454;-70
2024/02/20 02:20:27;;;;;;;12.90;5.73;;;7.70;99.90;;;;;;5103736;28;20488;-70
2024/02/20 02:22:55;;;;;;;10.63;3.33;;;7.70;99.90;;;;;;5102188;28;20853;-70
2024/02/20 02:25:25;;;;;;;10.23;3.20;;;7.70;99.90;;;;;;5104000;28;20989;-71
2024/02/20 02:27:55;;;;;;;11.90;4.57;;;7.70;99.90;;;;;;5104268;28;20950;-70
2024/02/20 02:30:24;;;;;;;11.90;2.97;;;7.70;99.90;;;;;;5105080;28;20478;-71
2024/02/20 02:32:52;;;;;;;10.40;3.07;;;7.70;99.90;;;;;;5103644;28;20485;-71
2024/02/20 02:35:20;;;;;;;10.20;3.20;;;7.70;99.90;;;;;;5103421;28;21056;-71
2024/02/20 02:37:48;;;;;;;15.63;3.30;;;7.70;99.90;;;;;;5105331;28;20468;-71
2024/02/20 02:40:16;;;;;;;15.27;3.67;;;7.70;99.90;;;;;;5097635;28;21378;-71
2024/02/20 02:42:44;;;;;;;11.50;3.30;;;7.70;99.90;;;;;;5104971;28;20460;-70
2024/02/20 02:45:13;;;;;;;11.20;3.03;;;7.60;99.90;;;;;;5105638;28;20980;-70
2024/02/20 02:47:41;;;;;;;10.73;2.77;;;7.70;99.90;;;;;;5105329;28;20551;-71
2024/02/20 02:50:10;;;;;;;12.17;2.87;;;7.70;99.90;;;;;;5108729;28;20822;-71
2024/02/20 02:52:40;;;;;;;10.30;3.00;;;7.70;99.90;;;;;;5098520;28;20504;-71
2024/02/20 02:55:09;;;;;;;19.60;2.90;;;7.70;99.90;;;;;;5108262;28;20544;-71
2024/02/20 02:57:36;;;;;;;10.13;2.80;;;7.70;99.90;;;;;;5106155;28;20494;-71
2024/02/20 03:00:08;;;;;;;9.93;2.80;;;7.70;99.90;;;;;;5095957;28;20454;-72
2024/02/20 03:02:38;;;;;;;11.43;2.50;;;7.70;99.90;;;;;;5108730;27;20461;-71
2024/02/20 03:05:06;;;;;;;12.70;2.70;;;7.70;99.90;;;;;;5107211;28;20485;-71
2024/02/20 03:07:34;;;;;;;13.87;2.90;;;7.70;99.90;;;;;;5107612;28;20457;-71
2024/02/20 03:10:03;;;;;;;10.27;2.43;;;7.70;99.90;;;;;;5107372;28;20824;-69
2024/02/20 03:12:31;;;;;;;10.70;3.00;;;7.70;99.90;;;;;;5107446;28;20453;-71
2024/02/20 03:15:04;;;;;;;10.63;2.43;;;7.70;99.90;;;;;;5108137;28;20970;-70
2024/02/20 03:17:32;;;;;;;11.50;2.33;;;7.70;99.90;;;;;;5105577;28;21089;-70
2024/02/20 03:20:04;;;;;;;15.57;3.50;;;7.70;99.90;;;;;;5107214;28;21055;-71
2024/02/20 03:22:33;;;;;;;12.77;2.97;;;7.70;99.90;;;;;;5105195;28;20524;-71
2024/02/20 03:25:05;;;;;;;13.70;2.37;;;7.70;99.90;;;;;;5107490;28;20587;-70
2024/02/20 03:27:33;;;;;;;10.53;2.63;;;7.70;99.90;;;;;;5107741;28;20577;-70
2024/02/20 03:30:02;;;;;;;10.07;2.40;;;7.70;99.90;;;;;;5103515;28;20490;-71
2024/02/20 03:32:29;;;;;;;15.00;3.67;;;7.80;99.90;;;;;;5106369;28;20869;-72
2024/02/20 03:34:57;;;;;;;11.27;2.87;;;7.70;99.90;;;;;;5103097;28;20456;-72
2024/02/20 03:37:27;;;;;;;10.00;2.50;;;7.70;99.90;;;;;;5104950;28;20567;-73
2024/02/20 03:39:55;;;;;;;9.60;2.77;;;7.80;99.90;;;;;;5104033;28;20460;-72
2024/02/20 03:42:23;;;;;;;9.60;2.03;;;7.70;99.90;;;;;;5106977;28;20469;-72
2024/02/20 03:44:51;;;;;;;17.70;2.67;;;7.70;99.90;;;;;;5106921;28;20468;-72
2024/02/20 03:47:19;;;;;;;11.60;2.73;;;7.70;99.90;;;;;;5105617;28;20474;-72
2024/02/20 03:49:48;;;;;;;11.47;2.73;;;7.70;99.90;;;;;;5107923;28;20461;-72
2024/02/20 03:52:16;;;;;;;13.40;2.50;;;7.70;99.90;;;;;;5107317;28;20560;-72
2024/02/20 03:54:45;;;;;;;11.33;3.00;;;7.70;99.90;;;;;;5107368;28;20549;-73
2024/02/20 03:57:13;;;;;;;10.97;2.17;;;7.70;99.90;;;;;;5097865;28;20493;-72
2024/02/20 03:59:41;;;;;;;10.00;2.57;;;7.70;99.90;;;;;;5104421;28;20449;-71
2024/02/20 04:02:10;;;;;;;8.67;2.23;;;7.70;99.90;;;;;;5107501;28;20438;-72
2024/02/20 04:04:38;;;;;;;12.10;2.40;;;7.70;99.90;;;;;;5106256;28;20509;-71
2024/02/20 04:07:06;;;;;;;13.13;3.10;;;7.70;99.90;;;;;;5105523;28;20454;-71
2024/02/20 04:09:34;;;;;;;11.73;3.17;;;7.60;99.90;;;;;;5107625;28;20465;-72
2024/02/20 04:12:04;;;;;;;12.87;3.23;;;7.70;99.90;;;;;;5106148;28;20477;-71
2024/02/20 04:14:31;;;;;;;10.80;3.10;;;7.70;99.90;;;;;;5106426;28;20471;-71
2024/02/20 04:16:59;;;;;;;12.40;2.57;;;7.70;99.90;;;;;;5102122;28;20476;-71
2024/02/20 04:19:27;;;;;;;16.37;2.97;;;7.60;99.90;;;;;;5105038;28;20551;-71
2024/02/20 04:21:55;;;;;;;11.57;2.63;;;7.60;99.90;;;;;;5107229;28;20534;-70
2024/02/20 04:24:23;;;;;;;10.73;3.60;;;7.60;99.90;;;;;;5102601;28;20472;-71
2024/02/20 04:26:51;;;;;;;15.17;2.73;;;7.60;99.90;;;;;;5106414;28;21046;-70
2024/02/20 04:29:21;;;;;;;9.00;2.30;;;7.50;99.90;;;;;;5104723;28;20574;-72
2024/02/20 04:31:48;;;;;;;9.47;2.70;;;7.50;99.90;;;;;;5102839;28;20463;-72
2024/02/20 04:34:16;;;;;;;15.70;2.70;;;7.40;99.90;;;;;;5106549;28;20457;-71
2024/02/20 04:36:44;;;;;;;12.87;2.80;;;7.40;99.90;;;;;;5107445;28;21013;-71
2024/02/20 04:39:18;;;;;;;14.30;2.83;;;7.30;99.90;;;;;;5106691;28;20483;-71
2024/02/20 04:41:46;;;;;;;10.07;2.20;;;7.30;99.90;;;;;;5100217;28;20483;-72
2024/02/20 04:44:16;;;;;;;13.10;3.07;;;7.30;99.90;;;;;;5106649;28;20483;-72
2024/02/20 04:46:45;;;;;;;8.23;1.90;;;7.30;99.90;;;;;;5105680;28;20506;-72
2024/02/20 04:49:13;;;;;;;14.73;2.33;;;7.30;99.90;;;;;;5103496;28;20812;-72
2024/02/20 04:51:43;;;;;;;16.70;2.37;;;7.30;99.90;;;;;;5105174;28;20542;-71
2024/02/20 04:54:11;;;;;;;15.20;2.60;;;7.20;99.90;;;;;;5104337;28;20872;-71
2024/02/20 04:56:39;;;;;;;9.60;1.73;;;7.30;99.90;;;;;;5104523;28;20473;-71
2024/02/20 04:59:07;;;;;;;13.63;4.30;;;7.30;99.90;;;;;;5100365;28;20548;-71
2024/02/20 05:01:35;;;;;;;17.50;3.40;;;7.30;99.90;;;;;;5100315;28;20469;-72
2024/02/20 05:04:05;;;;;;;9.97;2.40;;;7.30;99.90;;;;;;5095744;28;20989;-71
2024/02/20 05:06:33;;;;;;;12.70;2.30;;;7.30;99.90;;;;;;5101111;28;20499;-71
2024/02/20 05:09:01;;;;;;;12.43;2.50;;;7.30;99.90;;;;;;5105736;28;20445;-73
2024/02/20 05:11:29;;;;;;;9.63;2.30;;;7.40;99.90;;;;;;5105624;28;20437;-72
2024/02/20 05:13:57;;;;;;;12.13;2.60;;;7.40;99.90;;;;;;5100349;28;20449;-71
2024/02/20 05:16:25;;;;;;;11.43;2.47;;;7.30;99.90;;;;;;5105982;28;20441;-71
2024/02/20 05:18:53;;;;;;;15.70;2.87;;;7.40;99.90;;;;;;5097265;28;20498;-71
2024/02/20 05:21:22;;;;;;;12.47;2.33;;;7.30;99.90;;;;;;5105807;28;20443;-72
2024/02/20 05:23:50;;;;;;;10.50;2.47;;;7.30;99.90;;;;;;5105895;28;20446;-72
2024/02/20 05:26:18;;;;;;;14.47;2.40;;;7.30;99.90;;;;;;5101220;28;21180;-72
2024/02/20 05:28:46;;;;;;;8.87;2.03;;;7.30;99.90;;;;;;5101857;28;20451;-71
2024/02/20 05:31:28;;;;;;;10.10;2.23;;;7.30;99.90;;;;;;5100347;28;20442;-71
2024/02/20 05:33:57;;;;;;;12.47;2.50;;;7.30;99.90;;;;;;5102650;28;20475;-70
2024/02/20 05:36:29;;;;;;;9.80;2.20;;;7.30;99.90;;;;;;5100200;28;20543;-71
2024/02/20 05:39:00;;;;;;;11.37;2.10;;;7.30;99.90;;;;;;5104361;28;20433;-71
2024/02/20 05:41:29;;;;;;;9.90;2.10;;;7.30;99.90;;;;;;5098421;28;20834;-71
2024/02/20 05:43:58;;;;;;;9.73;2.37;;;7.30;99.90;;;;;;5105803;28;20549;-71
2024/02/20 05:46:27;;;;;;;15.70;3.10;;;7.30;99.90;;;;;;5105258;28;20446;-72
2024/02/20 05:48:55;;;;;;;13.17;2.60;;;7.30;99.90;;;;;;5105954;28;20575;-70
2024/02/20 05:51:24;;;;;;;15.27;3.10;;;7.30;99.90;;;;;;5105634;28;20476;-71
2024/02/20 05:53:54;;;;;;;13.50;1.80;;;7.30;99.90;;;;;;5104413;28;20465;-71
2024/02/20 05:56:22;;;;;;;11.70;2.27;;;7.30;99.90;;;;;;5105553;28;20498;-71
2024/02/20 05:58:50;;;;;;;13.90;2.90;;;7.30;99.90;;;;;;5093220;28;20559;-71
2024/02/20 06:01:18;;;;;;;11.00;2.20;;;7.30;99.90;;;;;;5104567;28;20539;-71
2024/02/20 06:03:47;;;;;;;9.40;2.20;;;7.30;99.90;;;;;;5104799;28;20517;-72
2024/02/20 06:06:15;;;;;;;11.90;2.23;;;7.20;99.90;;;;;;5098283;28;20441;-70
2024/02/20 06:08:44;;;;;;;11.60;2.60;;;7.20;99.90;;;;;;5105819;28;20437;-71
2024/02/20 06:11:15;;;;;;;12.57;2.40;;;7.20;99.90;;;;;;5102118;28;20438;-70
2024/02/20 06:13:44;;;;;;;15.07;2.60;;;7.20;99.90;;;;;;5108609;28;20957;-71
2024/02/20 06:16:12;;;;;;;11.40;2.30;;;7.20;99.90;;;;;;5108726;28;20437;-70
2024/02/20 06:18:41;;;;;;;15.33;2.50;;;7.10;99.90;;;;;;5109741;28;20493;-70
2024/02/20 06:21:09;;;;;;;13.70;2.93;;;7.20;99.90;;;;;;5104150;28;20453;-70
2024/02/20 06:23:38;;;;;;;14.40;2.40;;;7.10;99.90;;;;;;5106161;28;20501;-70
2024/02/20 06:26:07;;;;;;;10.77;1.97;;;7.10;99.90;;;;;;5109617;28;20954;-71
2024/02/20 06:28:41;;;;;;;16.97;2.70;;;7.10;99.90;;;;;;5109489;28;20441;-70
2024/02/20 06:31:09;;;;;;;13.63;2.40;;;7.10;99.90;;;;;;5108862;28;20440;-71
2024/02/20 06:33:37;;;;;;;14.23;2.73;;;7.10;99.90;;;;;;5109067;28;20485;-70
2024/02/20 06:36:06;;;;;;;9.70;2.10;;;7.20;99.90;;;;;;5108411;28;21025;-71
2024/02/20 06:38:34;;;;;;;14.53;4.33;;;7.20;99.90;;;;;;5100971;28;20543;-72
2024/02/20 06:41:02;;;;;;;9.60;1.73;;;7.20;99.90;;;;;;5108917;28;20520;-72
2024/02/20 06:43:30;;;;;;;11.17;2.10;;;7.20;99.90;;;;;;5105563;28;20542;-69
2024/02/20 06:46:01;;;;;;;11.50;2.43;;;7.20;99.90;;;;;;5105732;28;20459;-69
2024/02/20 06:48:29;;;;;;;11.50;2.60;;;7.30;99.90;;;;;;5099567;28;20440;-71
2024/02/20 06:50:57;;;;;;;11.37;2.33;;;7.30;99.90;;;;;;5106466;28;20445;-71
2024/02/20 06:53:25;;;;;;;15.23;2.03;;;7.30;99.90;;;;;;5102673;28;20434;-71
2024/02/20 06:55:53;;;;;;;13.33;2.27;;;7.30;99.90;;;;;;5105871;28;20457;-70
2024/02/20 06:58:21;;;;;;;12.53;2.70;;;7.30;99.90;;;;;;5105422;28;20477;-71
2024/02/20 07:00:49;;;;;;;13.57;3.07;;;7.30;99.90;;;;;;5107887;28;20446;-72
2024/02/20 07:03:18;;;;;;;9.90;2.10;;;7.30;99.90;;;;;;5102728;28;20452;-71
2024/02/20 07:05:46;;;;;;;15.00;2.57;;;7.40;99.90;;;;;;5108828;28;20504;-71
2024/02/20 07:08:17;;;;;;;10.00;2.43;;;7.40;99.90;;;;;;5105332;28;20441;-70
2024/02/20 07:10:45;;;;;;;13.67;2.40;;;7.40;99.90;;;;;;5108263;28;20437;-70
2024/02/20 07:13:13;;;;;;;9.50;2.20;;;7.40;99.90;;;;;;5103820;28;20475;-70
2024/02/20 07:15:41;;;;;;;10.50;3.10;;;7.40;99.90;;;;;;5106158;28;20469;-70
2024/02/20 07:18:09;;;;;;;12.20;2.53;;;7.30;99.90;;;;;;5107953;28;20506;-70
2024/02/20 07:20:38;;;;;;;10.30;2.07;;;7.40;99.90;;;;;;5108397;28;20445;-69
2024/02/20 07:23:06;;;;;;;10.40;1.90;;;7.40;99.90;;;;;;5107018;28;20438;-70
2024/02/20 07:25:34;;;;;;;20.47;2.40;;;7.40;99.90;;;;;;5108290;28;20457;-70
2024/02/20 07:28:02;;;;;;;12.77;2.00;;;7.50;99.90;;;;;;5107610;28;20426;-70
2024/02/20 07:30:32;;;;;;;12.03;2.63;;;7.50;99.90;;;;;;5103132;28;20444;-69
2024/02/20 07:33:00;;;;;;;14.90;2.40;;;7.50;99.90;;;;;;5107609;28;20528;-71
2024/02/20 07:35:28;;;;;;;10.30;2.23;;;7.50;99.90;;;;;;5106403;28;20464;-69
2024/02/20 07:38:00;;;;;;;14.27;3.33;;;7.50;99.90;;;;;;5103389;28;20511;-70
2024/02/20 07:40:28;;;;;;;12.57;2.67;;;7.50;99.90;;;;;;5106059;28;20926;-70
2024/02/20 07:42:56;;;;;;;13.00;2.90;;;7.50;99.90;;;;;;5108275;28;20450;-71
2024/02/20 07:45:24;;;;;;;11.50;2.30;;;7.50;99.90;;;;;;5108175;28;20510;-73
2024/02/20 07:47:52;;;;;;;14.50;2.63;;;7.50;99.90;;;;;;5107511;28;21004;-71
2024/02/20 07:50:20;;;;;;;12.30;2.33;;;7.50;99.90;;;;;;5106841;28;20506;-73
2024/02/20 07:52:52;;;;;;;13.23;2.30;;;7.50;99.90;;;;;;5105919;28;20438;-70
2024/02/20 07:55:21;;;;;;;16.80;3.20;;;7.50;99.90;;;;;;5107484;28;20459;-70
2024/02/20 07:57:49;;;;;;;12.93;3.00;;;7.40;99.90;;;;;;5105255;28;20437;-70
2024/02/20 08:00:18;;;;;;;17.27;3.77;;;7.50;99.90;;;;;;5105681;28;20458;-71
2024/02/20 08:02:47;;;;;;;11.03;2.87;;;7.40;99.90;;;;;;5106183;28;20534;-71
2024/02/20 08:05:16;;;;;;;12.80;2.53;;;7.40;99.90;;;;;;5108052;28;20483;-71
2024/02/20 08:07:44;;;;;;;19.33;3.50;;;7.30;99.90;;;;;;5107509;28;20449;-71
2024/02/20 08:10:12;;;;;;;13.33;2.87;;;7.20;99.90;;;;;;5104638;28;20445;-70
2024/02/20 08:12:42;;;;;;;14.97;3.27;;;7.20;99.90;;;;;;5107378;28;20440;-70
2024/02/20 08:15:10;;;;;;;13.87;4.40;;;7.10;99.90;;;;;;5107033;28;20451;-70
2024/02/20 08:17:40;;;;;;;11.93;3.23;;;7.10;99.90;;;;;;5106462;28;20437;-70
2024/02/20 08:20:09;;;;;;;11.40;2.80;;;7.10;99.90;;;;;;5104998;28;20579;-70
2024/02/20 08:22:37;;;;;;;14.03;3.97;;;7.10;99.90;;;;;;5102604;28;20460;-71
2024/02/20 08:25:07;;;;;;;14.00;2.83;;;7.20;99.90;;;;;;5101855;28;20831;-71
2024/02/20 08:27:35;;;;;;;13.17;3.43;;;7.40;99.90;;;;;;5107341;28;20437;-70
2024/02/20 08:30:07;;;;;;;13.00;3.07;;;7.70;99.90;;;;;;5104818;28;20485;-70
2024/02/20 08:32:35;;;;;;;15.90;3.67;;;7.90;99.90;;;;;;5105369;28;20949;-70
2024/02/20 08:35:04;;;;;;;13.80;2.90;;;8.00;99.90;;;;;;5102141;28;20552;-70
2024/02/20 08:37:33;;;;;;;12.33;3.80;;;8.00;99.90;;;;;;5104270;28;20465;-70
2024/02/20 08:40:01;;;;;;;12.23;3.00;;;8.20;99.90;;;;;;5101340;28;20516;-70
2024/02/20 08:42:30;;;;;;;13.10;3.03;;;8.40;99.90;;;;;;5105344;28;20524;-71
2024/02/20 08:44:58;;;;;;;14.13;2.80;;;8.40;99.90;;;;;;5107787;28;20461;-70
2024/02/20 08:47:27;;;;;;;14.10;2.60;;;8.60;99.90;;;;;;5108913;28;20446;-70
2024/02/20 08:49:55;;;;;;;16.03;3.00;;;8.50;99.90;;;;;;5105434;28;20474;-70
2024/02/20 08:52:23;;;;;;;15.70;3.00;;;8.50;99.90;;;;;;5107273;28;20476;-70
2024/02/20 08:54:51;;;;;;;10.33;3.23;;;8.60;99.90;;;;;;5107919;28;20457;-71
2024/02/20 08:57:23;;;;;;;10.50;2.90;;;8.90;99.90;;;;;;5106172;28;20517;-71
2024/02/20 08:59:51;;;;;;;15.30;3.03;;;9.40;99.90;;;;;;5102980;28;21017;-70
2024/02/20 09:02:18;;;;;;;15.97;2.90;;;9.80;99.90;;;;;;5105865;28;20460;-71
2024/02/20 09:04:51;;;;;;;15.67;3.73;;;9.80;99.90;;;;;;5101171;28;20466;-71
2024/02/20 09:07:19;;;;;;;14.20;3.07;;;9.90;99.90;;;;;;5105535;28;21112;-70
2024/02/20 09:09:47;;;;;;;15.40;4.00;;;10.10;99.90;;;;;;5099439;28;20436;-71
2024/02/20 09:12:16;;;;;;;13.73;2.50;;;9.90;99.90;;;;;;5096242;28;20479;-71
2024/02/20 09:14:44;;;;;;;11.93;2.77;;;9.80;99.90;;;;;;5107106;28;20466;-69
2024/02/20 09:17:12;;;;;;;11.70;2.90;;;9.70;99.90;;;;;;5105447;28;20468;-71
2024/02/20 09:19:40;;;;;;;12.30;2.73;;;9.70;99.90;;;;;;5100965;28;20482;-70
2024/02/20 09:22:10;;;;;;;10.93;3.00;;;9.60;99.90;;;;;;5105988;28;20640;-70
2024/02/20 09:24:39;;;;;;;11.47;3.00;;;9.60;99.90;;;;;;5105985;28;20514;-71
2024/02/20 09:27:09;;;;;;;13.50;3.50;;;9.60;99.90;;;;;;5103890;28;20451;-71
2024/02/20 09:29:37;;;;;;;9.90;2.70;;;9.50;99.90;;;;;;5105401;28;20434;-70
2024/02/20 09:32:06;;;;;;;13.23;3.20;;;9.40;99.90;;;;;;5104884;28;20436;-71
2024/02/20 09:34:34;;;;;;;16.20;3.30;;;9.20;99.90;;;;;;5101941;28;20465;-70
2024/02/20 09:37:02;;;;;;;15.23;3.93;;;9.30;99.90;;;;;;5104306;28;20459;-70
2024/02/20 09:39:33;;;;;;;13.63;2.90;;;9.60;99.90;;;;;;5105544;28;21062;-71
2024/02/20 09:42:07;;;;;;;18.83;3.50;;;9.70;99.90;;;;;;5105396;28;20528;-71
2024/02/20 09:44:39;;;;;;;18.70;4.20;;;9.80;99.90;;;;;;5101124;28;21177;-70
2024/02/20 09:47:08;;;;;;;10.23;3.17;;;10.00;99.90;;;;;;5109063;28;20444;-70
2024/02/20 09:49:39;;;;;;;15.87;3.40;;;10.20;99.90;;;;;;5109619;28;20444;-71
2024/02/20 09:52:09;;;;;;;21.20;4.27;;;10.40;99.90;;;;;;5109104;28;20828;-70
2024/02/20 09:54:38;;;;;;;12.90;5.73;;;10.80;99.90;;;;;;5105960;28;20479;-70
2024/02/20 09:57:07;;;;;;;15.27;2.87;;;10.60;99.90;;;;;;5106667;28;20436;-70
2024/02/20 09:59:35;;;;;;;13.80;3.20;;;10.30;99.90;;;;;;5108455;28;20476;-71
2024/02/20 10:02:03;;;;;;;13.23;3.30;;;10.00;99.90;;;;;;5095365;28;20534;-71
2024/02/20 10:04:34;;;;;;;15.10;3.97;;;9.80;99.90;;;;;;5107067;28;20527;-71
2024/02/20 10:07:04;;;;;;;15.00;3.57;;;9.60;99.90;;;;;;5108768;28;20442;-70
2024/02/20 10:09:32;;;;;;;22.60;4.63;;;9.60;99.90;;;;;;5107091;28;20446;-70
2024/02/20 10:12:02;;;;;;;16.30;3.20;;;9.60;99.90;;;;;;5105632;28;20534;-71
2024/02/20 10:14:30;;;;;;;12.67;3.07;;;9.70;99.90;;;;;;5108223;28;20549;-70
2024/02/20 10:17:03;;;;;;;13.50;3.77;;;9.90;99.90;;;;;;5099231;28;20962;-70
2024/02/20 10:19:31;;;;;;;12.60;3.17;;;10.10;99.90;;;;;;5110969;28;20935;-70
2024/02/20 10:22:00;;;;;;;16.43;3.90;;;10.20;99.90;;;;;;5102766;28;20452;-71
2024/02/20 10:24:28;;;;;;;14.10;3.37;;;10.20;99.90;;;;;;5108795;28;20473;-70
2024/02/20 10:27:08;;;;;;;15.63;4.37;;;10.10;99.90;;;;;;5098565;28;20451;-71
2024/02/20 10:29:36;;;;;;;13.40;3.70;;;10.20;99.90;;;;;;5107134;28;20478;-71
2024/02/20 10:32:04;;;;;;;14.10;4.07;;;10.20;99.90;;;;;;5102675;28;20447;-71
2024/02/20 10:34:32;;;;;;;15.90;3.43;;;10.40;99.90;;;;;;5108262;28;20963;-70
2024/02/20 10:37:07;;;;;;;13.00;3.40;;;10.70;99.90;;;;;;5097198;28;20440;-71
2024/02/20 10:39:35;;;;;;;14.90;2.93;;;11.30;99.90;;;;;;5102983;28;20477;-70
2024/02/20 10:42:05;;;;;;;16.10;3.50;;;12.00;99.90;;;;;;5100393;28;20457;-70
2024/02/20 10:44:35;;;;;;;15.73;4.07;;;12.00;99.90;;;;;;5108903;28;20476;-70
2024/02/20 10:47:07;;;;;;;17.87;3.17;;;11.40;99.90;;;;;;5108912;28;20440;-70
2024/02/20 10:49:37;;;;;;;12.87;4.03;;;11.10;99.90;;;;;;5109363;28;20867;-70
2024/02/20 10:52:05;;;;;;;11.40;3.07;;;10.90;99.90;;;;;;5102619;28;20536;-70
2024/02/20 10:54:34;;;;;;;20.77;3.53;;;11.00;99.90;;;;;;5109750;28;20471;-71
2024/02/20 10:57:15;;;;;;;14.07;4.13;;;11.00;99.90;;;;;;5106244;28;20446;-70
2024/02/20 10:59:45;;;;;;;12.07;2.57;;;11.30;99.90;;;;;;5107537;28;20559;-71
2024/02/20 11:02:13;;;;;;;15.17;3.40;;;11.30;99.90;;;;;;5106383;28;20441;-70
2024/02/20 11:04:43;;;;;;;13.43;2.93;;;11.60;99.90;;;;;;5104935;28;20454;-71
2024/02/20 11:07:11;;;;;;;14.37;3.20;;;11.90;99.90;;;;;;5107902;28;20449;-71
2024/02/20 11:09:39;;;;;;;15.23;3.20;;;12.50;99.90;;;;;;5102420;28;21023;-71
2024/02/20 11:12:08;;;;;;;11.93;2.60;;;12.90;99.90;;;;;;5100387;28;20976;-69
2024/02/20 11:14:36;;;;;;;14.57;2.87;;;13.20;99.90;;;;;;5106448;28;20505;-72
2024/02/20 11:17:15;;;;;;;14.97;3.73;;;13.30;99.90;;;;;;5107285;28;20438;-72
2024/02/20 11:20:09;;;;;;;13.70;3.07;;;13.40;98.60;;;;;;5105944;28;20479;-72
2024/02/20 11:22:37;;;;;;;10.83;2.63;;;13.60;99.50;;;;;;5106293;28;20467;-71
2024/02/20 11:25:08;;;;;;;15.77;2.53;;;13.50;98.50;;;;;;5108787;28;20903;-70
2024/02/20 11:27:40;;;;;;;9.43;2.47;;;13.40;95.70;;;;;;5108109;28;20465;-70
2024/02/20 11:30:11;;;;;;;14.67;3.20;;;12.60;98.20;;;;;;5107749;28;20441;-71
2024/02/20 11:32:40;;;;;;;11.07;3.17;;;12.10;98.90;;;;;;5109193;28;20512;-72
2024/02/20 11:35:30;;;;;;;12.73;2.73;;;11.70;99.90;;;;;;5105321;28;21010;-71
2024/02/20 11:38:00;;;;;;;13.50;3.00;;;11.80;99.90;;;;;;5099975;28;20472;-72
2024/02/20 11:40:30;;;;;;;14.87;3.07;;;12.30;99.90;;;;;;5108891;28;20475;-71
2024/02/20 11:42:59;;;;;;;14.20;3.07;;;12.60;99.90;;;;;;5108378;28;20437;-70
2024/02/20 11:45:30;;;;;;;11.10;2.77;;;12.40;99.40;;;;;;5107338;28;20463;-72
2024/02/20 11:48:02;;;;;;;10.70;1.97;;;12.50;95.80;;;;;;5103015;28;20560;-71
2024/02/20 11:50:31;;;;;;;10.03;1.87;;;12.00;95.40;;;;;;5105307;28;20457;-70
2024/02/20 11:53:04;;;;;;;8.90;1.57;;;12.00;94.60;;;;;;5108109;28;21899;-70
2024/02/20 11:55:33;;;;;;;9.63;2.13;;;12.30;93.50;;;;;;5108508;28;20461;-70
2024/02/20 11:58:02;;;;;;;14.10;2.93;;;11.80;92.60;;;;;;5106239;28;20529;-72
2024/02/20 12:00:32;;;;;;;12.90;2.23;;;12.00;93.20;;;;;;5104211;28;20487;-74
2024/02/20 12:03:03;;;;;;;9.47;1.90;;;12.00;92.60;;;;;;5104674;28;20450;-70
2024/02/20 12:05:37;;;;;;;11.47;2.13;;;11.70;94.40;;;;;;5102728;28;20550;-70
2024/02/20 12:08:13;;;;;;;10.73;2.20;;;12.10;92.70;;;;;;5102148;28;20497;-69
2024/02/20 12:10:42;;;;;;;10.63;1.80;;;11.90;92.10;;;;;;5106734;28;20545;-70
2024/02/20 12:13:18;;;;;;;11.03;2.33;;;11.50;93.10;;;;;;5105568;28;20972;-70
2024/02/20 12:15:48;;;;;;;12.47;2.80;;;11.60;93.20;;;;;;5105909;28;20458;-72
2024/02/20 12:18:25;;;;;;;9.83;1.87;;;11.70;93.30;;;;;;5108170;28;20841;-71
2024/02/20 12:21:03;;;;;;;11.50;1.53;;;11.80;91.80;;;;;;5103648;28;21038;-71
2024/02/20 12:23:31;;;;;;;11.60;2.53;;;11.90;92.00;;;;;;5104891;28;21232;-70
2024/02/20 12:26:05;;;;;;;13.27;3.20;;;11.50;92.10;;;;;;5106491;28;20473;-70
2024/02/20 12:28:33;;;;;;;13.37;2.73;;;11.00;93.20;;;;;;5101644;28;20441;-71
2024/02/20 12:31:01;;;;;;;12.00;2.47;;;10.70;95.30;;;;;;5101244;28;20963;-72
2024/02/20 12:33:32;;;;;;;11.93;2.23;;;10.80;95.30;;;;;;5102147;28;20422;-70
2024/02/20 12:36:00;;;;;;;9.53;1.83;;;10.70;94.70;;;;;;5101681;28;20463;-71
2024/02/20 12:38:29;;;;;;;12.10;2.20;;;10.80;95.10;;;;;;5106263;28;20448;-70
2024/02/20 12:40:58;;;;;;;13.20;2.63;;;10.90;95.60;;;;;;5105242;28;20473;-69
2024/02/20 12:43:26;;;;;;;14.47;2.60;;;11.20;95.70;;;;;;5104562;28;20432;-69
2024/02/20 12:45:54;;;;;;;12.77;2.43;;;11.40;96.60;;;;;;5105122;28;20500;-71
2024/02/20 12:48:22;;;;;;;11.90;2.63;;;11.60;96.20;;;;;;5104861;28;20488;-70
2024/02/20 12:50:51;;;;;;;10.47;2.57;;;11.80;95.20;;;;;;5106510;28;20931;-70
2024/02/20 12:53:19;;;;;;;13.77;2.70;;;11.60;95.30;;;;;;5104900;28;20922;-71
2024/02/20 12:55:47;;;;;;;15.80;3.50;;;11.60;94.60;;;;;;5105768;28;20462;-70